sensor_id;sensor_type;location;lat;lon;timestamp;P1;durP1;ratioP1;P2;durP2;ratioP2
76351;SDS011;65179;47.786;19.138;2022-11-20T00:00:37;30.48;;;11.00;;
76351;SDS011;65179;47.786;19.138;2022-11-20T00:03:03;29.07;;;11.80;;
76351;SDS011;65179;47.786;19.138;2022-11-20T00:05:28;32.90;;;12.23;;
76351;SDS011;65179;47.786;19.138;2022-11-20T00:07:53;27.90;;;10.77;;
76351;SDS011;65179;47.786;19.138;2022-11-20T00:10:19;30.07;;;11.47;;
76351;SDS011;65179;47.786;19.138;2022-11-20T00:12:44;26.60;;;11.07;;
76351;SDS011;65179;47.786;19.138;2022-11-20T00:15:09;31.00;;;12.40;;
76351;SDS011;65179;47.786;19.138;2022-11-20T00:17:35;35.07;;;13.50;;
76351;SDS011;65179;47.786;19.138;2022-11-20T00:20:00;33.80;;;12.83;;
76351;SDS011;65179;47.786;19.138;2022-11-20T00:22:26;31.30;;;11.73;;
76351;SDS011;65179;47.786;19.138;2022-11-20T00:24:51;30.83;;;12.43;;
76351;SDS011;65179;47.786;19.138;2022-11-20T00:27:16;30.30;;;11.90;;
76351;SDS011;65179;47.786;19.138;2022-11-20T00:29:42;32.10;;;12.30;;
76351;SDS011;65179;47.786;19.138;2022-11-20T00:32:07;30.03;;;11.87;;
76351;SDS011;65179;47.786;19.138;2022-11-20T00:34:32;30.63;;;12.13;;
76351;SDS011;65179;47.786;19.138;2022-11-20T00:36:58;32.70;;;11.70;;
76351;SDS011;65179;47.786;19.138;2022-11-20T00:39:23;35.77;;;11.80;;
76351;SDS011;65179;47.786;19.138;2022-11-20T00:41:49;25.92;;;10.55;;
76351;SDS011;65179;47.786;19.138;2022-11-20T00:44:15;27.97;;;11.63;;
76351;SDS011;65179;47.786;19.138;2022-11-20T00:46:40;29.48;;;11.45;;
76351;SDS011;65179;47.786;19.138;2022-11-20T00:49:06;26.57;;;10.93;;
76351;SDS011;65179;47.786;19.138;2022-11-20T00:51:31;27.17;;;10.70;;
76351;SDS011;65179;47.786;19.138;2022-11-20T00:53:57;28.07;;;10.80;;
76351;SDS011;65179;47.786;19.138;2022-11-20T00:56:22;29.17;;;11.75;;
76351;SDS011;65179;47.786;19.138;2022-11-20T00:58:48;25.37;;;11.60;;
76351;SDS011;65179;47.786;19.138;2022-11-20T01:01:15;26.55;;;10.00;;
76351;SDS011;65179;47.786;19.138;2022-11-20T01:03:44;29.10;;;10.82;;
76351;SDS011;65179;47.786;19.138;2022-11-20T01:06:12;32.83;;;11.50;;
76351;SDS011;65179;47.786;19.138;2022-11-20T01:08:42;25.37;;;9.80;;
76351;SDS011;65179;47.786;19.138;2022-11-20T01:11:12;33.67;;;12.15;;
76351;SDS011;65179;47.786;19.138;2022-11-20T01:13:40;26.45;;;10.93;;
76351;SDS011;65179;47.786;19.138;2022-11-20T01:16:07;29.52;;;11.82;;
76351;SDS011;65179;47.786;19.138;2022-11-20T01:18:33;34.28;;;12.05;;
76351;SDS011;65179;47.786;19.138;2022-11-20T01:21:00;35.30;;;12.57;;
76351;SDS011;65179;47.786;19.138;2022-11-20T01:23:30;29.37;;;10.85;;
76351;SDS011;65179;47.786;19.138;2022-11-20T01:25:59;34.35;;;11.27;;
76351;SDS011;65179;47.786;19.138;2022-11-20T01:28:25;29.80;;;11.15;;
76351;SDS011;65179;47.786;19.138;2022-11-20T01:30:51;29.83;;;12.50;;
76351;SDS011;65179;47.786;19.138;2022-11-20T01:33:16;29.60;;;11.20;;
76351;SDS011;65179;47.786;19.138;2022-11-20T01:35:41;28.47;;;11.87;;
76351;SDS011;65179;47.786;19.138;2022-11-20T01:38:07;29.63;;;11.17;;
76351;SDS011;65179;47.786;19.138;2022-11-20T01:40:32;28.30;;;11.73;;
76351;SDS011;65179;47.786;19.138;2022-11-20T01:43:01;31.95;;;12.23;;
76351;SDS011;65179;47.786;19.138;2022-11-20T01:46:08;31.37;;;10.57;;
76351;SDS011;65179;47.786;19.138;2022-11-20T01:51:08;30.37;;;11.87;;
76351;SDS011;65179;47.786;19.138;2022-11-20T01:53:40;29.55;;;12.82;;
76351;SDS011;65179;47.786;19.138;2022-11-20T01:56:07;28.55;;;12.45;;
76351;SDS011;65179;47.786;19.138;2022-11-20T01:58:37;30.80;;;12.57;;
76351;SDS011;65179;47.786;19.138;2022-11-20T02:01:07;33.78;;;12.02;;
76351;SDS011;65179;47.786;19.138;2022-11-20T02:03:33;34.15;;;13.82;;
76351;SDS011;65179;47.786;19.138;2022-11-20T02:06:04;33.70;;;12.40;;
76351;SDS011;65179;47.786;19.138;2022-11-20T02:08:35;31.80;;;12.30;;
76351;SDS011;65179;47.786;19.138;2022-11-20T02:11:02;32.47;;;12.23;;
76351;SDS011;65179;47.786;19.138;2022-11-20T02:13:28;34.30;;;12.70;;
76351;SDS011;65179;47.786;19.138;2022-11-20T02:16:13;32.72;;;12.75;;
76351;SDS011;65179;47.786;19.138;2022-11-20T02:18:41;33.03;;;13.68;;
76351;SDS011;65179;47.786;19.138;2022-11-20T02:21:24;38.20;;;15.70;;
76351;SDS011;65179;47.786;19.138;2022-11-20T02:24:01;43.72;;;14.80;;
76351;SDS011;65179;47.786;19.138;2022-11-20T02:29:28;39.05;;;14.50;;
76351;SDS011;65179;47.786;19.138;2022-11-20T02:31:59;37.90;;;14.95;;
76351;SDS011;65179;47.786;19.138;2022-11-20T02:34:26;33.60;;;13.20;;
76351;SDS011;65179;47.786;19.138;2022-11-20T02:36:51;29.98;;;12.70;;
76351;SDS011;65179;47.786;19.138;2022-11-20T02:39:18;30.07;;;13.87;;
76351;SDS011;65179;47.786;19.138;2022-11-20T02:41:45;30.88;;;13.52;;
76351;SDS011;65179;47.786;19.138;2022-11-20T02:44:10;31.80;;;13.70;;
76351;SDS011;65179;47.786;19.138;2022-11-20T02:46:36;33.25;;;13.75;;
76351;SDS011;65179;47.786;19.138;2022-11-20T02:49:02;32.07;;;13.57;;
76351;SDS011;65179;47.786;19.138;2022-11-20T02:51:28;33.88;;;14.38;;
76351;SDS011;65179;47.786;19.138;2022-11-20T02:53:53;27.90;;;12.23;;
76351;SDS011;65179;47.786;19.138;2022-11-20T02:56:19;28.33;;;12.30;;
76351;SDS011;65179;47.786;19.138;2022-11-20T02:58:45;29.45;;;12.32;;
76351;SDS011;65179;47.786;19.138;2022-11-20T03:01:11;26.87;;;11.85;;
76351;SDS011;65179;47.786;19.138;2022-11-20T03:03:36;28.53;;;12.03;;
76351;SDS011;65179;47.786;19.138;2022-11-20T03:06:02;29.53;;;12.30;;
76351;SDS011;65179;47.786;19.138;2022-11-20T03:08:27;30.55;;;13.30;;
76351;SDS011;65179;47.786;19.138;2022-11-20T03:10:53;34.17;;;12.97;;
76351;SDS011;65179;47.786;19.138;2022-11-20T03:13:18;34.10;;;12.85;;
76351;SDS011;65179;47.786;19.138;2022-11-20T03:15:44;30.23;;;13.10;;
76351;SDS011;65179;47.786;19.138;2022-11-20T03:18:09;30.33;;;13.63;;
76351;SDS011;65179;47.786;19.138;2022-11-20T03:20:35;31.47;;;12.83;;
76351;SDS011;65179;47.786;19.138;2022-11-20T03:23:01;28.77;;;11.67;;
76351;SDS011;65179;47.786;19.138;2022-11-20T03:25:26;27.02;;;11.80;;
76351;SDS011;65179;47.786;19.138;2022-11-20T03:27:52;29.98;;;12.13;;
76351;SDS011;65179;47.786;19.138;2022-11-20T03:30:18;31.93;;;12.33;;
76351;SDS011;65179;47.786;19.138;2022-11-20T03:32:45;34.08;;;12.93;;
76351;SDS011;65179;47.786;19.138;2022-11-20T03:35:10;30.20;;;12.88;;
76351;SDS011;65179;47.786;19.138;2022-11-20T03:37:36;28.63;;;11.93;;
76351;SDS011;65179;47.786;19.138;2022-11-20T03:40:01;28.23;;;12.20;;
76351;SDS011;65179;47.786;19.138;2022-11-20T03:42:27;35.65;;;13.30;;
76351;SDS011;65179;47.786;19.138;2022-11-20T03:45:12;29.55;;;12.37;;
76351;SDS011;65179;47.786;19.138;2022-11-20T03:47:38;29.73;;;12.27;;
76351;SDS011;65179;47.786;19.138;2022-11-20T03:50:03;30.27;;;11.73;;
76351;SDS011;65179;47.786;19.138;2022-11-20T03:52:29;30.05;;;12.88;;
76351;SDS011;65179;47.786;19.138;2022-11-20T03:54:55;29.53;;;11.03;;
76351;SDS011;65179;47.786;19.138;2022-11-20T03:57:20;33.55;;;12.10;;
76351;SDS011;65179;47.786;19.138;2022-11-20T03:59:46;29.50;;;12.37;;
76351;SDS011;65179;47.786;19.138;2022-11-20T04:02:11;28.83;;;11.80;;
76351;SDS011;65179;47.786;19.138;2022-11-20T04:04:36;28.93;;;11.87;;
76351;SDS011;65179;47.786;19.138;2022-11-20T04:07:02;34.53;;;12.50;;
76351;SDS011;65179;47.786;19.138;2022-11-20T04:09:28;33.17;;;12.88;;
76351;SDS011;65179;47.786;19.138;2022-11-20T04:11:53;29.57;;;12.20;;
76351;SDS011;65179;47.786;19.138;2022-11-20T04:14:18;30.40;;;12.23;;
76351;SDS011;65179;47.786;19.138;2022-11-20T04:16:44;31.52;;;12.30;;
76351;SDS011;65179;47.786;19.138;2022-11-20T04:19:10;31.85;;;11.80;;
76351;SDS011;65179;47.786;19.138;2022-11-20T04:21:37;28.87;;;13.17;;
76351;SDS011;65179;47.786;19.138;2022-11-20T04:24:02;25.75;;;11.88;;
76351;SDS011;65179;47.786;19.138;2022-11-20T04:26:29;35.93;;;15.20;;
76351;SDS011;65179;47.786;19.138;2022-11-20T04:28:55;42.25;;;17.73;;
76351;SDS011;65179;47.786;19.138;2022-11-20T04:31:22;38.72;;;18.00;;
76351;SDS011;65179;47.786;19.138;2022-11-20T04:33:50;33.40;;;15.05;;
76351;SDS011;65179;47.786;19.138;2022-11-20T04:36:20;31.90;;;13.20;;
76351;SDS011;65179;47.786;19.138;2022-11-20T04:38:50;28.70;;;12.50;;
76351;SDS011;65179;47.786;19.138;2022-11-20T04:41:17;28.90;;;12.07;;
76351;SDS011;65179;47.786;19.138;2022-11-20T04:43:48;31.65;;;12.63;;
76351;SDS011;65179;47.786;19.138;2022-11-20T04:46:15;29.12;;;11.88;;
76351;SDS011;65179;47.786;19.138;2022-11-20T04:48:44;29.43;;;12.30;;
76351;SDS011;65179;47.786;19.138;2022-11-20T04:51:10;28.90;;;11.52;;
76351;SDS011;65179;47.786;19.138;2022-11-20T04:53:36;30.90;;;12.90;;
76351;SDS011;65179;47.786;19.138;2022-11-20T04:56:08;31.20;;;12.40;;
76351;SDS011;65179;47.786;19.138;2022-11-20T04:58:35;29.73;;;11.27;;
76351;SDS011;65179;47.786;19.138;2022-11-20T05:01:05;31.90;;;12.45;;
76351;SDS011;65179;47.786;19.138;2022-11-20T05:03:37;38.40;;;14.73;;
76351;SDS011;65179;47.786;19.138;2022-11-20T05:06:03;31.92;;;13.38;;
76351;SDS011;65179;47.786;19.138;2022-11-20T05:08:30;30.88;;;13.65;;
76351;SDS011;65179;47.786;19.138;2022-11-20T05:11:06;28.63;;;12.53;;
76351;SDS011;65179;47.786;19.138;2022-11-20T05:13:36;30.77;;;13.35;;
76351;SDS011;65179;47.786;19.138;2022-11-20T05:16:09;30.30;;;13.50;;
76351;SDS011;65179;47.786;19.138;2022-11-20T05:18:36;32.30;;;13.30;;
76351;SDS011;65179;47.786;19.138;2022-11-20T05:21:02;32.08;;;12.90;;
76351;SDS011;65179;47.786;19.138;2022-11-20T05:23:29;31.40;;;12.93;;
76351;SDS011;65179;47.786;19.138;2022-11-20T05:25:56;33.15;;;13.88;;
76351;SDS011;65179;47.786;19.138;2022-11-20T05:28:22;29.87;;;13.07;;
76351;SDS011;65179;47.786;19.138;2022-11-20T05:30:48;32.50;;;13.82;;
76351;SDS011;65179;47.786;19.138;2022-11-20T05:33:14;32.80;;;13.87;;
76351;SDS011;65179;47.786;19.138;2022-11-20T05:35:40;31.37;;;13.95;;
76351;SDS011;65179;47.786;19.138;2022-11-20T05:38:05;31.97;;;13.70;;
76351;SDS011;65179;47.786;19.138;2022-11-20T05:40:31;31.40;;;14.13;;
76351;SDS011;65179;47.786;19.138;2022-11-20T05:42:56;28.30;;;13.30;;
76351;SDS011;65179;47.786;19.138;2022-11-20T05:45:21;30.50;;;13.40;;
76351;SDS011;65179;47.786;19.138;2022-11-20T05:47:47;29.40;;;13.63;;
76351;SDS011;65179;47.786;19.138;2022-11-20T05:50:13;34.07;;;13.20;;
76351;SDS011;65179;47.786;19.138;2022-11-20T05:52:39;31.37;;;12.65;;
76351;SDS011;65179;47.786;19.138;2022-11-20T05:55:05;27.08;;;12.20;;
76351;SDS011;65179;47.786;19.138;2022-11-20T05:57:31;28.47;;;11.97;;
76351;SDS011;65179;47.786;19.138;2022-11-20T05:59:56;26.58;;;11.43;;
76351;SDS011;65179;47.786;19.138;2022-11-20T06:02:22;24.23;;;12.30;;
76351;SDS011;65179;47.786;19.138;2022-11-20T06:04:47;29.27;;;12.50;;
76351;SDS011;65179;47.786;19.138;2022-11-20T06:07:13;35.55;;;13.85;;
76351;SDS011;65179;47.786;19.138;2022-11-20T06:09:39;30.17;;;13.07;;
76351;SDS011;65179;47.786;19.138;2022-11-20T06:12:04;29.48;;;12.68;;
76351;SDS011;65179;47.786;19.138;2022-11-20T06:14:30;30.30;;;13.47;;
76351;SDS011;65179;47.786;19.138;2022-11-20T06:16:55;30.27;;;13.17;;
76351;SDS011;65179;47.786;19.138;2022-11-20T06:19:21;29.33;;;12.23;;
76351;SDS011;65179;47.786;19.138;2022-11-20T06:21:47;34.70;;;12.60;;
76351;SDS011;65179;47.786;19.138;2022-11-20T06:24:14;28.52;;;12.65;;
76351;SDS011;65179;47.786;19.138;2022-11-20T06:26:40;28.53;;;12.60;;
76351;SDS011;65179;47.786;19.138;2022-11-20T06:29:05;26.40;;;12.20;;
76351;SDS011;65179;47.786;19.138;2022-11-20T06:31:30;29.25;;;12.13;;
76351;SDS011;65179;47.786;19.138;2022-11-20T06:33:59;29.17;;;12.23;;
76351;SDS011;65179;47.786;19.138;2022-11-20T06:36:25;28.38;;;12.90;;
76351;SDS011;65179;47.786;19.138;2022-11-20T06:38:51;29.13;;;11.50;;
76351;SDS011;65179;47.786;19.138;2022-11-20T06:41:17;26.67;;;11.43;;
76351;SDS011;65179;47.786;19.138;2022-11-20T06:43:44;26.48;;;12.05;;
76351;SDS011;65179;47.786;19.138;2022-11-20T06:46:11;28.48;;;12.93;;
76351;SDS011;65179;47.786;19.138;2022-11-20T06:48:38;27.58;;;12.30;;
76351;SDS011;65179;47.786;19.138;2022-11-20T06:51:04;30.07;;;12.80;;
76351;SDS011;65179;47.786;19.138;2022-11-20T06:53:31;29.92;;;12.35;;
76351;SDS011;65179;47.786;19.138;2022-11-20T06:55:57;28.15;;;12.25;;
76351;SDS011;65179;47.786;19.138;2022-11-20T06:58:22;32.63;;;12.75;;
76351;SDS011;65179;47.786;19.138;2022-11-20T07:00:48;27.90;;;12.23;;
76351;SDS011;65179;47.786;19.138;2022-11-20T07:03:13;27.43;;;11.87;;
76351;SDS011;65179;47.786;19.138;2022-11-20T07:05:39;30.63;;;12.57;;
76351;SDS011;65179;47.786;19.138;2022-11-20T07:08:05;26.05;;;11.68;;
76351;SDS011;65179;47.786;19.138;2022-11-20T07:10:31;30.00;;;11.82;;
76351;SDS011;65179;47.786;19.138;2022-11-20T07:12:57;34.05;;;12.95;;
76351;SDS011;65179;47.786;19.138;2022-11-20T07:15:23;31.87;;;13.57;;
76351;SDS011;65179;47.786;19.138;2022-11-20T07:17:49;32.63;;;13.38;;
76351;SDS011;65179;47.786;19.138;2022-11-20T07:20:15;28.85;;;13.23;;
76351;SDS011;65179;47.786;19.138;2022-11-20T07:22:41;29.47;;;12.83;;
76351;SDS011;65179;47.786;19.138;2022-11-20T07:25:07;30.50;;;12.57;;
76351;SDS011;65179;47.786;19.138;2022-11-20T07:27:33;28.75;;;11.57;;
76351;SDS011;65179;47.786;19.138;2022-11-20T07:29:59;29.33;;;12.50;;
76351;SDS011;65179;47.786;19.138;2022-11-20T07:32:24;26.83;;;11.13;;
76351;SDS011;65179;47.786;19.138;2022-11-20T07:34:50;29.52;;;12.98;;
76351;SDS011;65179;47.786;19.138;2022-11-20T07:37:15;49.43;;;16.87;;
76351;SDS011;65179;47.786;19.138;2022-11-20T07:39:41;32.30;;;13.77;;
76351;SDS011;65179;47.786;19.138;2022-11-20T07:42:07;37.38;;;13.30;;
76351;SDS011;65179;47.786;19.138;2022-11-20T07:44:33;46.13;;;16.12;;
76351;SDS011;65179;47.786;19.138;2022-11-20T07:46:58;64.20;;;19.40;;
76351;SDS011;65179;47.786;19.138;2022-11-20T07:49:24;88.62;;;25.88;;
76351;SDS011;65179;47.786;19.138;2022-11-20T07:51:50;62.43;;;20.70;;
76351;SDS011;65179;47.786;19.138;2022-11-20T07:54:16;36.65;;;14.07;;
76351;SDS011;65179;47.786;19.138;2022-11-20T07:56:42;59.17;;;19.20;;
76351;SDS011;65179;47.786;19.138;2022-11-20T07:59:07;49.60;;;18.43;;
76351;SDS011;65179;47.786;19.138;2022-11-20T08:01:32;42.47;;;17.13;;
76351;SDS011;65179;47.786;19.138;2022-11-20T08:03:58;38.80;;;14.82;;
76351;SDS011;65179;47.786;19.138;2022-11-20T08:06:23;33.53;;;13.77;;
76351;SDS011;65179;47.786;19.138;2022-11-20T08:08:49;35.37;;;14.97;;
76351;SDS011;65179;47.786;19.138;2022-11-20T08:11:15;29.87;;;13.57;;
76351;SDS011;65179;47.786;19.138;2022-11-20T08:13:59;29.05;;;12.80;;
76351;SDS011;65179;47.786;19.138;2022-11-20T08:16:37;29.42;;;13.30;;
76351;SDS011;65179;47.786;19.138;2022-11-20T08:19:03;28.33;;;12.23;;
76351;SDS011;65179;47.786;19.138;2022-11-20T08:21:29;28.45;;;12.82;;
76351;SDS011;65179;47.786;19.138;2022-11-20T08:23:55;29.63;;;13.18;;
76351;SDS011;65179;47.786;19.138;2022-11-20T08:26:21;30.05;;;13.52;;
76351;SDS011;65179;47.786;19.138;2022-11-20T08:28:47;29.20;;;13.13;;
76351;SDS011;65179;47.786;19.138;2022-11-20T08:31:12;30.92;;;13.93;;
76351;SDS011;65179;47.786;19.138;2022-11-20T08:33:37;32.97;;;13.80;;
76351;SDS011;65179;47.786;19.138;2022-11-20T08:36:03;29.77;;;15.13;;
76351;SDS011;65179;47.786;19.138;2022-11-20T08:38:30;31.23;;;14.68;;
76351;SDS011;65179;47.786;19.138;2022-11-20T08:40:59;33.87;;;15.70;;
76351;SDS011;65179;47.786;19.138;2022-11-20T08:43:44;33.97;;;14.90;;
76351;SDS011;65179;47.786;19.138;2022-11-20T08:46:09;33.70;;;15.50;;
76351;SDS011;65179;47.786;19.138;2022-11-20T08:48:35;31.10;;;14.38;;
76351;SDS011;65179;47.786;19.138;2022-11-20T08:51:01;36.37;;;15.13;;
76351;SDS011;65179;47.786;19.138;2022-11-20T08:53:26;34.73;;;14.60;;
76351;SDS011;65179;47.786;19.138;2022-11-20T08:55:52;35.70;;;16.05;;
76351;SDS011;65179;47.786;19.138;2022-11-20T08:58:17;39.10;;;17.03;;
76351;SDS011;65179;47.786;19.138;2022-11-20T09:00:43;33.13;;;15.67;;
76351;SDS011;65179;47.786;19.138;2022-11-20T09:03:08;32.33;;;14.55;;
76351;SDS011;65179;47.786;19.138;2022-11-20T09:05:37;30.80;;;13.50;;
76351;SDS011;65179;47.786;19.138;2022-11-20T09:08:02;37.08;;;13.88;;
76351;SDS011;65179;47.786;19.138;2022-11-20T09:10:28;34.80;;;14.67;;
76351;SDS011;65179;47.786;19.138;2022-11-20T09:12:54;29.77;;;13.43;;
76351;SDS011;65179;47.786;19.138;2022-11-20T09:15:23;30.52;;;13.27;;
76351;SDS011;65179;47.786;19.138;2022-11-20T09:17:56;28.67;;;12.05;;
76351;SDS011;65179;47.786;19.138;2022-11-20T09:20:23;33.97;;;12.88;;
76351;SDS011;65179;47.786;19.138;2022-11-20T09:22:49;25.30;;;11.70;;
76351;SDS011;65179;47.786;19.138;2022-11-20T09:25:14;29.10;;;11.75;;
76351;SDS011;65179;47.786;19.138;2022-11-20T09:27:43;28.65;;;12.15;;
76351;SDS011;65179;47.786;19.138;2022-11-20T09:30:11;24.42;;;10.85;;
76351;SDS011;65179;47.786;19.138;2022-11-20T09:32:38;26.05;;;11.05;;
76351;SDS011;65179;47.786;19.138;2022-11-20T09:35:04;24.00;;;10.68;;
76351;SDS011;65179;47.786;19.138;2022-11-20T09:37:30;25.13;;;11.10;;
76351;SDS011;65179;47.786;19.138;2022-11-20T09:39:55;24.50;;;10.98;;
76351;SDS011;65179;47.786;19.138;2022-11-20T09:45:06;23.92;;;10.75;;
76351;SDS011;65179;47.786;19.138;2022-11-20T09:50:42;24.35;;;11.27;;
76351;SDS011;65179;47.786;19.138;2022-11-20T09:53:16;22.13;;;9.95;;
76351;SDS011;65179;47.786;19.138;2022-11-20T09:55:51;23.27;;;11.27;;
76351;SDS011;65179;47.786;19.138;2022-11-20T09:58:38;21.20;;;9.80;;
76351;SDS011;65179;47.786;19.138;2022-11-20T10:01:15;29.08;;;9.85;;
76351;SDS011;65179;47.786;19.138;2022-11-20T10:06:16;26.43;;;10.13;;
76351;SDS011;65179;47.786;19.138;2022-11-20T10:08:45;23.67;;;9.15;;
76351;SDS011;65179;47.786;19.138;2022-11-20T10:12:17;25.23;;;10.18;;
76351;SDS011;65179;47.786;19.138;2022-11-20T10:14:25;21.10;;;9.48;;
76351;SDS011;65179;47.786;19.138;2022-11-20T10:17:02;25.17;;;10.68;;
76351;SDS011;65179;47.786;19.138;2022-11-20T10:20:06;21.87;;;9.80;;
76351;SDS011;65179;47.786;19.138;2022-11-20T10:23:27;18.65;;;9.10;;
76351;SDS011;65179;47.786;19.138;2022-11-20T10:30:52;18.80;;;8.63;;
76351;SDS011;65179;47.786;19.138;2022-11-20T10:33:25;21.65;;;9.40;;
76351;SDS011;65179;47.786;19.138;2022-11-20T10:38:54;19.15;;;9.20;;
76351;SDS011;65179;47.786;19.138;2022-11-20T10:41:40;20.30;;;9.15;;
76351;SDS011;65179;47.786;19.138;2022-11-20T10:44:11;17.73;;;8.48;;
76351;SDS011;65179;47.786;19.138;2022-11-20T10:46:40;23.52;;;9.63;;
76351;SDS011;65179;47.786;19.138;2022-11-20T10:49:17;20.08;;;9.18;;
76351;SDS011;65179;47.786;19.138;2022-11-20T10:56:59;18.52;;;10.20;;
76351;SDS011;65179;47.786;19.138;2022-11-20T10:59:44;17.75;;;9.75;;
76351;SDS011;65179;47.786;19.138;2022-11-20T11:02:21;22.25;;;10.55;;
76351;SDS011;65179;47.786;19.138;2022-11-20T11:04:57;20.70;;;10.00;;
76351;SDS011;65179;47.786;19.138;2022-11-20T11:07:36;21.55;;;10.25;;
76351;SDS011;65179;47.786;19.138;2022-11-20T11:10:15;18.55;;;9.15;;
76351;SDS011;65179;47.786;19.138;2022-11-20T11:12:43;18.23;;;9.25;;
76351;SDS011;65179;47.786;19.138;2022-11-20T11:15:13;20.58;;;9.13;;
76351;SDS011;65179;47.786;19.138;2022-11-20T11:17:49;20.27;;;10.02;;
76351;SDS011;65179;47.786;19.138;2022-11-20T11:20:19;20.00;;;9.60;;
76351;SDS011;65179;47.786;19.138;2022-11-20T11:22:51;21.37;;;10.20;;
76351;SDS011;65179;47.786;19.138;2022-11-20T11:25:22;21.85;;;11.05;;
76351;SDS011;65179;47.786;19.138;2022-11-20T11:28:00;19.25;;;9.32;;
76351;SDS011;65179;47.786;19.138;2022-11-20T11:30:39;19.15;;;9.57;;
76351;SDS011;65179;47.786;19.138;2022-11-20T11:33:12;19.65;;;10.50;;
76351;SDS011;65179;47.786;19.138;2022-11-20T11:35:45;19.08;;;9.75;;
76351;SDS011;65179;47.786;19.138;2022-11-20T11:38:15;19.98;;;10.13;;
76351;SDS011;65179;47.786;19.138;2022-11-20T11:40:44;22.90;;;11.05;;
76351;SDS011;65179;47.786;19.138;2022-11-20T11:43:25;23.58;;;11.40;;
76351;SDS011;65179;47.786;19.138;2022-11-20T11:46:33;21.33;;;10.80;;
76351;SDS011;65179;47.786;19.138;2022-11-20T11:49:00;22.35;;;10.80;;
76351;SDS011;65179;47.786;19.138;2022-11-20T11:51:27;22.90;;;10.95;;
76351;SDS011;65179;47.786;19.138;2022-11-20T11:54:25;21.95;;;10.20;;
76351;SDS011;65179;47.786;19.138;2022-11-20T11:56:55;24.17;;;10.77;;
76351;SDS011;65179;47.786;19.138;2022-11-20T11:59:32;24.75;;;11.32;;
76351;SDS011;65179;47.786;19.138;2022-11-20T12:04:57;26.37;;;12.80;;
76351;SDS011;65179;47.786;19.138;2022-11-20T12:10:22;24.55;;;11.52;;
76351;SDS011;65179;47.786;19.138;2022-11-20T12:12:54;27.90;;;12.18;;
76351;SDS011;65179;47.786;19.138;2022-11-20T12:15:31;26.90;;;12.02;;
76351;SDS011;65179;47.786;19.138;2022-11-20T12:17:59;24.35;;;11.80;;
76351;SDS011;65179;47.786;19.138;2022-11-20T12:20:30;25.33;;;11.57;;
76351;SDS011;65179;47.786;19.138;2022-11-20T12:23:10;25.62;;;11.85;;
76351;SDS011;65179;47.786;19.138;2022-11-20T12:25:50;25.45;;;11.75;;
76351;SDS011;65179;47.786;19.138;2022-11-20T12:28:23;25.17;;;11.48;;
76351;SDS011;65179;47.786;19.138;2022-11-20T12:36:31;25.83;;;11.45;;
76351;SDS011;65179;47.786;19.138;2022-11-20T12:41:49;28.12;;;12.63;;
76351;SDS011;65179;47.786;19.138;2022-11-20T12:47:49;23.62;;;11.45;;
76351;SDS011;65179;47.786;19.138;2022-11-20T12:50:28;29.63;;;12.73;;
76351;SDS011;65179;47.786;19.138;2022-11-20T13:01:11;25.45;;;12.27;;
76351;SDS011;65179;47.786;19.138;2022-11-20T13:06:38;23.73;;;11.63;;
76351;SDS011;65179;47.786;19.138;2022-11-20T13:09:06;26.50;;;10.93;;
76351;SDS011;65179;47.786;19.138;2022-11-20T13:14:41;26.52;;;10.80;;
76351;SDS011;65179;47.786;19.138;2022-11-20T13:17:21;20.88;;;9.85;;
76351;SDS011;65179;47.786;19.138;2022-11-20T13:19:57;25.58;;;10.85;;
76351;SDS011;65179;47.786;19.138;2022-11-20T13:22:27;23.83;;;11.55;;
76351;SDS011;65179;47.786;19.138;2022-11-20T13:27:55;23.33;;;10.73;;
76351;SDS011;65179;47.786;19.138;2022-11-20T13:30:23;24.25;;;11.48;;
76351;SDS011;65179;47.786;19.138;2022-11-20T13:33:09;24.95;;;11.05;;
76351;SDS011;65179;47.786;19.138;2022-11-20T13:38:47;24.65;;;11.00;;
76351;SDS011;65179;47.786;19.138;2022-11-20T13:41:26;26.25;;;11.02;;
76351;SDS011;65179;47.786;19.138;2022-11-20T13:44:09;25.33;;;10.65;;
76351;SDS011;65179;47.786;19.138;2022-11-20T13:46:45;25.60;;;11.30;;
76351;SDS011;65179;47.786;19.138;2022-11-20T13:54:45;26.08;;;10.80;;
76351;SDS011;65179;47.786;19.138;2022-11-20T13:57:39;26.27;;;10.80;;
76351;SDS011;65179;47.786;19.138;2022-11-20T14:00:25;23.58;;;10.90;;
76351;SDS011;65179;47.786;19.138;2022-11-20T14:05:34;29.05;;;11.88;;
76351;SDS011;65179;47.786;19.138;2022-11-20T14:08:05;24.00;;;10.77;;
76351;SDS011;65179;47.786;19.138;2022-11-20T14:10:37;23.38;;;11.43;;
76351;SDS011;65179;47.786;19.138;2022-11-20T14:13:12;28.42;;;12.63;;
76351;SDS011;65179;47.786;19.138;2022-11-20T14:15:43;28.87;;;11.57;;
76351;SDS011;65179;47.786;19.138;2022-11-20T14:18:13;27.25;;;11.90;;
76351;SDS011;65179;47.786;19.138;2022-11-20T14:20:40;27.87;;;12.17;;
76351;SDS011;65179;47.786;19.138;2022-11-20T14:23:08;29.60;;;12.63;;
76351;SDS011;65179;47.786;19.138;2022-11-20T14:25:35;33.92;;;12.40;;
76351;SDS011;65179;47.786;19.138;2022-11-20T14:28:01;30.23;;;12.52;;
76351;SDS011;65179;47.786;19.138;2022-11-20T14:30:44;29.65;;;12.27;;
76351;SDS011;65179;47.786;19.138;2022-11-20T14:33:13;26.02;;;11.20;;
76351;SDS011;65179;47.786;19.138;2022-11-20T14:35:49;28.12;;;12.15;;
76351;SDS011;65179;47.786;19.138;2022-11-20T14:38:18;25.20;;;11.85;;
76351;SDS011;65179;47.786;19.138;2022-11-20T14:40:47;28.62;;;12.30;;
76351;SDS011;65179;47.786;19.138;2022-11-20T14:43:20;26.37;;;11.90;;
76351;SDS011;65179;47.786;19.138;2022-11-20T14:45:48;29.10;;;12.82;;
76351;SDS011;65179;47.786;19.138;2022-11-20T14:48:22;31.85;;;12.68;;
76351;SDS011;65179;47.786;19.138;2022-11-20T14:50:52;30.45;;;13.23;;
76351;SDS011;65179;47.786;19.138;2022-11-20T14:53:22;30.43;;;13.70;;
76351;SDS011;65179;47.786;19.138;2022-11-20T14:55:53;30.40;;;12.88;;
76351;SDS011;65179;47.786;19.138;2022-11-20T14:58:25;29.50;;;13.00;;
76351;SDS011;65179;47.786;19.138;2022-11-20T15:03:31;30.05;;;13.65;;
76351;SDS011;65179;47.786;19.138;2022-11-20T15:06:01;31.25;;;14.10;;
76351;SDS011;65179;47.786;19.138;2022-11-20T15:08:27;31.65;;;13.20;;
76351;SDS011;65179;47.786;19.138;2022-11-20T15:10:53;27.48;;;13.73;;
76351;SDS011;65179;47.786;19.138;2022-11-20T15:13:30;31.55;;;14.07;;
76351;SDS011;65179;47.786;19.138;2022-11-20T15:15:58;28.83;;;13.73;;
76351;SDS011;65179;47.786;19.138;2022-11-20T15:18:32;32.25;;;13.68;;
76351;SDS011;65179;47.786;19.138;2022-11-20T15:21:03;34.08;;;14.38;;
76351;SDS011;65179;47.786;19.138;2022-11-20T15:23:35;34.95;;;14.48;;
76351;SDS011;65179;47.786;19.138;2022-11-20T15:26:00;34.33;;;15.20;;
76351;SDS011;65179;47.786;19.138;2022-11-20T15:28:28;36.37;;;16.43;;
76351;SDS011;65179;47.786;19.138;2022-11-20T15:30:56;35.65;;;15.13;;
76351;SDS011;65179;47.786;19.138;2022-11-20T15:33:21;35.47;;;14.90;;
76351;SDS011;65179;47.786;19.138;2022-11-20T15:35:47;35.40;;;14.67;;